createdAt,value
2018-08-11T00:01:45.985Z,15.40
2018-08-11T00:04:15.245Z,15.40
2018-08-11T00:06:44.374Z,15.40
2018-08-11T00:09:13.840Z,15.40
2018-08-11T00:11:42.982Z,15.40
2018-08-11T00:14:12.146Z,15.40
2018-08-11T00:16:41.281Z,15.50
2018-08-11T00:19:10.385Z,15.20
2018-08-11T00:21:40.289Z,15.10
2018-08-11T00:24:09.485Z,15.10
2018-08-11T00:26:38.645Z,15.10
2018-08-11T00:29:07.753Z,15.00
2018-08-11T00:31:36.873Z,14.90
2018-08-11T00:34:06.217Z,14.70
2018-08-11T00:36:35.526Z,15.00
2018-08-11T00:39:07.848Z,15.20
2018-08-11T00:41:37.195Z,15.10
2018-08-11T00:44:07.109Z,15.20
2018-08-11T00:46:36.257Z,15.20
2018-08-11T00:49:05.394Z,15.10
2018-08-11T00:51:34.524Z,15.00
2018-08-11T00:54:04.354Z,14.90
2018-08-11T00:56:33.469Z,15.00
2018-08-11T00:59:02.757Z,15.00
2018-08-11T01:01:31.875Z,14.90
2018-08-11T01:04:01.032Z,14.80
2018-08-11T01:06:30.194Z,14.70
2018-08-11T01:08:59.316Z,14.80
2018-08-11T01:11:28.421Z,14.80
2018-08-11T01:13:57.541Z,14.90
2018-08-11T01:16:26.641Z,14.90
2018-08-11T01:18:55.697Z,14.80
2018-08-11T01:21:24.833Z,14.80
2018-08-11T01:23:53.967Z,15.10
2018-08-11T01:26:23.053Z,15.10
2018-08-11T01:28:52.220Z,15.10
2018-08-11T01:31:21.427Z,15.00
2018-08-11T01:33:51.948Z,14.80
2018-08-11T01:36:21.081Z,14.50
2018-08-11T01:38:50.259Z,14.50
2018-08-11T01:41:19.424Z,14.60
2018-08-11T01:43:48.674Z,14.80
2018-08-11T01:46:17.765Z,14.90
2018-08-11T01:48:46.876Z,14.80
2018-08-11T01:51:16.034Z,14.70
2018-08-11T01:53:45.193Z,14.70
2018-08-11T01:56:14.309Z,14.70
2018-08-11T01:58:43.464Z,14.70
2018-08-11T02:01:12.927Z,14.60
2018-08-11T02:03:42.117Z,14.60
2018-08-11T02:06:11.798Z,14.50
2018-08-11T02:08:40.957Z,14.50
2018-08-11T02:11:10.100Z,14.30
2018-08-11T02:13:39.417Z,14.30
2018-08-11T02:16:08.593Z,14.30
2018-08-11T02:18:37.724Z,14.40
2018-08-11T02:21:06.893Z,14.30
2018-08-11T02:23:36.123Z,14.30
2018-08-11T02:26:05.887Z,14.40
2018-08-11T02:28:35.026Z,14.30
2018-08-11T02:31:04.221Z,14.40
2018-08-11T02:33:33.329Z,14.30
2018-08-11T02:36:02.463Z,14.30
2018-08-11T02:38:31.593Z,14.30
2018-08-11T02:41:00.677Z,14.20
2018-08-11T02:43:29.813Z,14.10
2018-08-11T02:45:58.878Z,14.00
2018-08-11T02:48:28.689Z,13.80
2018-08-11T02:50:57.783Z,13.90
2018-08-11T02:53:26.985Z,14.00
2018-08-11T02:55:56.118Z,14.10
2018-08-11T02:58:25.194Z,14.10
2018-08-11T03:00:54.290Z,14.00
2018-08-11T03:03:23.618Z,13.70
2018-08-11T03:05:52.689Z,13.80
2018-08-11T03:08:21.764Z,14.00
2018-08-11T03:10:50.881Z,13.90
2018-08-11T03:13:23.272Z,13.90
2018-08-11T03:15:52.377Z,14.00
2018-08-11T03:18:21.584Z,14.00
2018-08-11T03:20:50.726Z,13.90
2018-08-11T03:23:19.836Z,13.90
2018-08-11T03:25:49.652Z,13.80
2018-08-11T03:28:19.477Z,13.90
2018-08-11T03:30:48.646Z,13.90
2018-08-11T03:33:17.755Z,13.80
2018-08-11T03:35:46.857Z,13.50
2018-08-11T03:38:16.002Z,13.70
2018-08-11T03:40:45.124Z,13.80
2018-08-11T03:43:14.323Z,13.80
2018-08-11T03:45:43.428Z,13.80
2018-08-11T03:48:12.515Z,13.50
2018-08-11T03:50:41.641Z,13.40
2018-08-11T03:53:10.769Z,13.50
2018-08-11T03:55:39.908Z,13.60
2018-08-11T03:58:09.033Z,13.60
2018-08-11T04:00:38.189Z,13.70
2018-08-11T04:03:07.372Z,13.70
2018-08-11T04:05:36.481Z,13.80
2018-08-11T04:08:06.204Z,13.90
2018-08-11T04:10:35.333Z,13.50
2018-08-11T04:13:04.486Z,13.40
2018-08-11T04:15:34.667Z,13.60
2018-08-11T04:18:04.357Z,13.70
2018-08-11T04:20:34.115Z,13.80
2018-08-11T04:23:03.505Z,13.70
2018-08-11T04:25:32.633Z,13.70
2018-08-11T04:28:01.722Z,13.70
2018-08-11T04:30:30.910Z,13.90
2018-08-11T04:33:00.036Z,13.70
2018-08-11T04:35:29.195Z,13.80
2018-08-11T04:37:58.269Z,13.90
2018-08-11T04:40:27.418Z,14.00
2018-08-11T04:42:57.166Z,13.80
2018-08-11T04:45:26.345Z,13.80
2018-08-11T04:47:55.472Z,13.90
2018-08-11T04:50:25.524Z,14.00
2018-08-11T04:52:54.927Z,14.10
2018-08-11T04:55:24.073Z,14.10
2018-08-11T04:57:53.165Z,14.20
2018-08-11T05:00:22.313Z,14.10
2018-08-11T05:02:51.494Z,14.30
2018-08-11T05:05:20.596Z,14.30
2018-08-11T05:07:49.713Z,14.40
2018-08-11T05:10:18.833Z,14.40
2018-08-11T05:12:48.185Z,14.40
2018-08-11T05:15:17.977Z,14.40
2018-08-11T05:17:47.084Z,14.40
2018-08-11T05:20:16.205Z,14.40
2018-08-11T05:22:45.305Z,14.60
2018-08-11T05:25:14.380Z,14.70
2018-08-11T05:27:44.098Z,14.90
2018-08-11T05:30:13.245Z,15.00
2018-08-11T05:32:42.369Z,15.10
2018-08-11T05:35:11.513Z,15.00
2018-08-11T05:37:40.644Z,14.80
2018-08-11T05:40:09.766Z,15.10
2018-08-11T05:42:39.077Z,15.10
2018-08-11T05:45:08.177Z,15.10
2018-08-11T05:47:37.292Z,15.40
2018-08-11T05:50:06.410Z,15.60
2018-08-11T05:52:35.561Z,15.80
2018-08-11T05:55:04.973Z,15.90
2018-08-11T05:57:34.565Z,16.00
2018-08-11T06:00:05.073Z,16.10
2018-08-11T06:02:34.236Z,16.10
2018-08-11T06:05:06.291Z,16.00
2018-08-11T06:07:35.678Z,16.10
2018-08-11T06:10:06.035Z,16.20
2018-08-11T06:12:38.171Z,16.20
2018-08-11T06:15:07.944Z,16.20
2018-08-11T06:17:37.761Z,16.30
2018-08-11T06:20:08.355Z,15.70
2018-08-11T06:22:37.669Z,16.10
2018-08-11T06:25:08.930Z,16.30
2018-08-11T06:27:38.060Z,16.40
2018-08-11T06:30:08.845Z,16.50
2018-08-11T06:32:38.280Z,16.70
2018-08-11T06:35:10.366Z,17.30
2018-08-11T06:37:42.076Z,17.30
2018-08-11T06:40:11.220Z,17.20
2018-08-11T06:42:40.309Z,17.20
2018-08-11T06:45:09.389Z,17.40
2018-08-11T06:47:38.566Z,17.80
2018-08-11T06:50:07.657Z,18.00
2018-08-11T06:52:36.804Z,17.90
2018-08-11T06:55:06.041Z,18.40
2018-08-11T06:57:35.153Z,18.60
2018-08-11T07:00:04.608Z,18.70
2018-08-11T07:02:34.409Z,19.10
2018-08-11T07:05:03.494Z,19.50
2018-08-11T07:07:32.593Z,19.70
2018-08-11T07:10:02.306Z,19.90
2018-08-11T07:12:31.656Z,20.20
2018-08-11T07:15:00.697Z,20.40
2018-08-11T07:17:29.961Z,20.50
2018-08-11T07:19:59.025Z,20.80
2018-08-11T07:22:28.069Z,21.00
2018-08-11T07:24:57.283Z,20.90
2018-08-11T07:27:26.344Z,21.20
2018-08-11T07:29:55.453Z,21.40
2018-08-11T07:32:24.528Z,21.30
2018-08-11T07:34:53.594Z,21.00
2018-08-11T07:37:22.685Z,21.00
2018-08-11T07:39:51.790Z,21.20
2018-08-11T07:42:21.249Z,21.50
2018-08-11T07:44:50.332Z,21.50
2018-08-11T07:47:19.388Z,21.40
2018-08-11T07:49:48.877Z,21.50
2018-08-11T07:52:17.978Z,21.60
2018-08-11T07:54:47.187Z,21.60
2018-08-11T07:57:16.290Z,21.80
2018-08-11T07:59:45.384Z,21.80
2018-08-11T08:02:14.568Z,21.70
2018-08-11T08:04:43.644Z,21.80
2018-08-11T08:07:12.721Z,22.20
2018-08-11T08:09:41.849Z,22.00
2018-08-11T08:12:11.044Z,21.90
2018-08-11T08:14:40.120Z,22.30
2018-08-11T08:17:09.181Z,22.40
2018-08-11T08:19:38.284Z,22.70
2018-08-11T08:22:07.439Z,22.90
2018-08-11T08:24:36.590Z,22.90
2018-08-11T08:27:05.705Z,23.00
2018-08-11T08:29:35.018Z,23.20
2018-08-11T08:32:04.135Z,23.20
2018-08-11T08:34:33.233Z,23.40
2018-08-11T08:37:02.350Z,23.70
2018-08-11T08:39:31.442Z,23.50
2018-08-11T08:42:00.549Z,23.70
2018-08-11T08:44:29.634Z,23.50
2018-08-11T08:46:58.718Z,23.50
2018-08-11T08:49:27.809Z,23.80
2018-08-11T08:51:57.165Z,23.90
2018-08-11T08:54:26.232Z,23.90
2018-08-11T08:56:55.330Z,23.60
2018-08-11T08:59:24.442Z,23.90
2018-08-11T09:01:53.573Z,24.40
2018-08-11T09:04:22.681Z,24.40
2018-08-11T09:06:51.825Z,24.10
2018-08-11T09:09:20.925Z,24.20
2018-08-11T09:11:50.140Z,24.50
2018-08-11T09:14:19.329Z,24.70
2018-08-11T09:16:48.610Z,24.20
2018-08-11T09:19:20.838Z,24.40
2018-08-11T09:21:49.929Z,24.70
2018-08-11T09:24:19.022Z,24.70
2018-08-11T09:26:48.121Z,24.80
2018-08-11T09:29:17.467Z,24.90
2018-08-11T09:31:46.813Z,25.10
2018-08-11T09:34:15.878Z,25.00
2018-08-11T09:36:45.093Z,24.60
2018-08-11T09:39:14.165Z,25.00
2018-08-11T09:41:43.360Z,24.90
2018-08-11T09:44:12.401Z,25.10
2018-08-11T09:46:41.509Z,25.30
2018-08-11T09:49:10.656Z,24.20
2018-08-11T09:51:39.761Z,24.10
2018-08-11T09:54:08.866Z,24.20
2018-08-11T09:56:37.961Z,24.20
2018-08-11T09:59:07.036Z,24.70
2018-08-11T10:01:41.569Z,25.10
2018-08-11T10:04:11.237Z,24.90
2018-08-11T10:06:40.317Z,24.70
2018-08-11T10:09:13.323Z,24.90
2018-08-11T10:11:43.960Z,25.20
2018-08-11T10:14:13.156Z,25.50
2018-08-11T10:16:42.961Z,25.60
2018-08-11T10:19:12.044Z,25.30
2018-08-11T10:21:41.199Z,25.30
2018-08-11T10:24:10.922Z,25.60
2018-08-11T10:26:40.043Z,25.60
2018-08-11T10:29:09.189Z,25.80
2018-08-11T10:31:38.323Z,25.60
2018-08-11T10:34:07.432Z,25.60
2018-08-11T10:36:37.122Z,25.20
2018-08-11T10:39:09.773Z,25.60
2018-08-11T10:41:39.512Z,26.00
2018-08-11T10:44:09.308Z,25.90
2018-08-11T10:46:38.648Z,25.60
2018-08-11T10:49:07.748Z,25.50
2018-08-11T10:51:37.006Z,25.10
2018-08-11T10:54:06.141Z,24.80
2018-08-11T10:56:35.312Z,24.70
2018-08-11T10:59:04.471Z,25.10
2018-08-11T11:01:33.648Z,25.50
2018-08-11T11:04:02.974Z,25.80
2018-08-11T11:06:32.117Z,26.20
2018-08-11T11:09:01.832Z,25.90
2018-08-11T11:11:31.141Z,25.90
2018-08-11T11:14:00.252Z,26.00
2018-08-11T11:16:29.349Z,25.90
2018-08-11T11:18:58.465Z,26.00
2018-08-11T11:21:28.137Z,25.90
2018-08-11T11:23:57.300Z,25.80
2018-08-11T11:26:26.401Z,25.50
2018-08-11T11:28:55.886Z,26.20
2018-08-11T11:31:25.009Z,26.40
2018-08-11T11:33:54.164Z,26.10
2018-08-11T11:36:23.657Z,26.10
2018-08-11T11:38:53.069Z,26.40
2018-08-11T11:41:22.203Z,26.60
2018-08-11T11:43:51.504Z,26.40
2018-08-11T11:46:20.591Z,26.70
2018-08-11T11:48:49.707Z,26.20
2018-08-11T11:51:18.872Z,26.90
2018-08-11T11:53:47.985Z,27.20
2018-08-11T11:56:17.080Z,27.60
2018-08-11T11:58:46.189Z,27.80
2018-08-11T12:01:15.256Z,27.30
2018-08-11T12:03:44.834Z,27.00
2018-08-11T12:06:13.936Z,27.10
2018-08-11T12:08:43.090Z,26.90
2018-08-11T12:11:12.269Z,27.40
2018-08-11T12:13:41.429Z,27.40
2018-08-11T12:16:10.542Z,27.80
2018-08-11T12:18:39.661Z,28.10
2018-08-11T12:21:08.805Z,28.00
2018-08-11T12:23:37.952Z,28.30
2018-08-11T12:26:07.269Z,28.30
2018-08-11T12:28:36.585Z,27.70
2018-08-11T12:31:05.891Z,27.10
2018-08-11T12:33:36.130Z,27.10
2018-08-11T12:36:05.225Z,27.60
2018-08-11T12:38:34.331Z,27.80
2018-08-11T12:41:03.406Z,28.00
2018-08-11T12:43:32.488Z,27.90
2018-08-11T12:46:01.862Z,27.80
2018-08-11T12:48:30.990Z,28.10
2018-08-11T12:51:00.217Z,27.90
2018-08-11T12:53:29.361Z,27.90
2018-08-11T12:55:58.557Z,27.60
2018-08-11T12:58:27.684Z,28.10
2018-08-11T13:00:56.814Z,28.00
2018-08-11T13:03:26.637Z,27.30
2018-08-11T13:05:55.721Z,27.30
2018-08-11T13:08:25.551Z,27.00
2018-08-11T13:10:54.720Z,27.60
2018-08-11T13:13:23.808Z,27.90
2018-08-11T13:15:53.384Z,28.20
2018-08-11T13:18:22.525Z,28.40
2018-08-11T13:20:51.864Z,27.80
2018-08-11T13:23:20.981Z,28.20
2018-08-11T13:25:50.152Z,28.40
2018-08-11T13:28:19.269Z,27.80
2018-08-11T13:30:48.425Z,27.80
2018-08-11T13:33:17.627Z,28.00
2018-08-11T13:35:46.760Z,28.40
2018-08-11T13:38:15.883Z,28.40
2018-08-11T13:40:45.050Z,28.20
2018-08-11T13:43:14.174Z,28.30
2018-08-11T13:45:43.357Z,27.90
2018-08-11T13:48:12.361Z,28.00
2018-08-11T13:50:41.472Z,28.30
2018-08-11T13:53:10.569Z,28.60
2018-08-11T13:55:39.791Z,28.30
2018-08-11T13:58:08.872Z,28.00
2018-08-11T14:00:37.994Z,27.80
2018-08-11T14:03:07.093Z,28.10
2018-08-11T14:05:36.157Z,28.00
2018-08-11T14:08:05.278Z,28.30
2018-08-11T14:10:34.450Z,28.40
2018-08-11T14:13:03.585Z,28.50
2018-08-11T14:15:32.700Z,28.30
2018-08-11T14:18:01.775Z,28.50
2018-08-11T14:20:30.973Z,28.10
2018-08-11T14:23:00.034Z,28.30
2018-08-11T14:25:29.126Z,28.60
2018-08-11T14:27:58.196Z,28.30
2018-08-11T14:30:27.349Z,28.00
2018-08-11T14:32:56.537Z,27.80
2018-08-11T14:35:25.774Z,27.90
2018-08-11T14:37:54.881Z,28.10
2018-08-11T14:40:24.038Z,28.00
2018-08-11T14:42:53.145Z,28.00
2018-08-11T14:45:22.697Z,28.00
2018-08-11T14:47:51.850Z,28.20
2018-08-11T14:50:20.969Z,28.10
2018-08-11T14:52:50.064Z,27.90
2018-08-11T14:55:19.669Z,27.70
2018-08-11T14:57:48.765Z,27.70
2018-08-11T15:00:18.039Z,27.50
2018-08-11T15:02:47.162Z,27.80
2018-08-11T15:05:16.287Z,28.00
2018-08-11T15:07:45.361Z,28.10
2018-08-11T15:10:14.553Z,28.30
2018-08-11T15:12:43.598Z,28.30
2018-08-11T15:15:12.713Z,28.40
2018-08-11T15:17:42.845Z,28.20
2018-08-11T15:20:11.993Z,27.90
2018-08-11T15:22:41.225Z,28.00
2018-08-11T15:25:11.424Z,27.60
2018-08-11T15:27:40.772Z,27.70
2018-08-11T15:30:11.993Z,27.30
2018-08-11T15:32:41.107Z,27.40
2018-08-11T15:35:10.517Z,27.40
2018-08-11T15:37:39.689Z,27.60
2018-08-11T15:40:09.321Z,27.80
2018-08-11T15:42:38.425Z,27.40
2018-08-11T15:45:07.991Z,27.40
2018-08-11T15:47:37.641Z,27.20
2018-08-11T15:50:06.961Z,27.40
2018-08-11T15:52:36.101Z,27.50
2018-08-11T15:55:05.552Z,27.40
2018-08-11T15:57:35.405Z,27.40
2018-08-11T16:00:05.558Z,27.40
2018-08-11T16:02:34.647Z,27.20
2018-08-11T16:05:03.802Z,27.10
2018-08-11T16:07:32.890Z,27.10
2018-08-11T16:10:02.057Z,26.80
2018-08-11T16:12:31.218Z,26.90
2018-08-11T16:15:00.289Z,27.00
2018-08-11T16:17:29.384Z,27.00
2018-08-11T16:19:58.532Z,27.00
2018-08-11T16:22:27.622Z,26.90
2018-08-11T16:24:56.691Z,26.90
2018-08-11T16:27:25.886Z,26.70
2018-08-11T16:29:54.981Z,26.50
2018-08-11T16:32:24.099Z,26.60
2018-08-11T16:34:53.250Z,26.70
2018-08-11T16:37:22.329Z,26.60
2018-08-11T16:39:51.380Z,26.60
2018-08-11T16:42:20.472Z,26.40
2018-08-11T16:44:49.556Z,26.10
2018-08-11T16:47:18.669Z,26.20
2018-08-11T16:49:47.833Z,26.30
2018-08-11T16:52:16.967Z,26.30
2018-08-11T16:54:46.034Z,26.30
2018-08-11T16:57:15.085Z,26.00
2018-08-11T16:59:44.349Z,26.00
2018-08-11T17:02:14.172Z,26.10
2018-08-11T17:04:43.316Z,25.90
2018-08-11T17:07:12.409Z,25.80
2018-08-11T17:09:41.503Z,25.90
2018-08-11T17:12:10.569Z,25.90
2018-08-11T17:14:39.818Z,25.90
2018-08-11T17:17:08.942Z,25.90
2018-08-11T17:19:38.814Z,25.80
2018-08-11T17:22:07.905Z,25.70
2018-08-11T17:24:37.033Z,25.50
2018-08-11T17:27:06.283Z,25.30
2018-08-11T17:29:35.470Z,25.30
2018-08-11T17:32:06.168Z,25.30
2018-08-11T17:34:36.594Z,25.00
2018-08-11T17:37:07.596Z,24.80
2018-08-11T17:39:37.033Z,24.60
2018-08-11T17:42:06.373Z,24.50
2018-08-11T17:44:35.474Z,24.60
2018-08-11T17:47:04.718Z,24.60
2018-08-11T17:49:33.849Z,24.50
2018-08-11T17:52:03.090Z,24.40
2018-08-11T17:54:32.223Z,24.10
2018-08-11T17:57:01.313Z,24.00
2018-08-11T17:59:30.434Z,23.90
2018-08-11T18:01:59.529Z,23.80
2018-08-11T18:04:28.905Z,23.70
2018-08-11T18:06:58.382Z,23.70
2018-08-11T18:09:27.602Z,23.70
2018-08-11T18:11:56.700Z,23.70
2018-08-11T18:14:25.796Z,23.60
2018-08-11T18:16:54.913Z,23.40
2018-08-11T18:19:24.113Z,23.40
2018-08-11T18:21:53.221Z,23.40
2018-08-11T18:24:22.326Z,23.30
2018-08-11T18:26:51.936Z,23.20
2018-08-11T18:29:21.069Z,23.10
2018-08-11T18:31:50.189Z,23.00
2018-08-11T18:34:19.340Z,22.90
2018-08-11T18:36:48.466Z,22.80
2018-08-11T18:39:19.535Z,22.70
2018-08-11T18:41:48.634Z,22.50
2018-08-11T18:44:17.764Z,22.40
2018-08-11T18:46:46.885Z,22.30
2018-08-11T18:49:16.085Z,22.10
2018-08-11T18:51:45.214Z,22.00
2018-08-11T18:54:14.412Z,21.80
2018-08-11T18:56:43.577Z,21.70
2018-08-11T18:59:12.791Z,21.60
2018-08-11T19:01:42.765Z,21.50
2018-08-11T19:04:11.993Z,20.90
2018-08-11T19:06:41.188Z,20.80
2018-08-11T19:09:12.642Z,20.90
2018-08-11T19:11:42.090Z,21.00
2018-08-11T19:14:11.206Z,20.60
2018-08-11T19:16:40.410Z,20.40
2018-08-11T19:19:09.585Z,20.10
2018-08-11T19:21:38.779Z,19.90
2018-08-11T19:24:07.917Z,19.70
2018-08-11T19:26:37.114Z,19.60
2018-08-11T19:29:06.635Z,19.80
2018-08-11T19:31:35.767Z,19.90
2018-08-11T19:34:04.913Z,19.90
2018-08-11T19:36:34.035Z,19.80
2018-08-11T19:39:03.820Z,19.80
2018-08-11T19:41:32.963Z,19.50
2018-08-11T19:44:03.861Z,19.50
2018-08-11T19:46:33.129Z,19.50
2018-08-11T19:49:02.181Z,18.90
2018-08-11T19:51:31.313Z,18.70
2018-08-11T19:54:01.138Z,18.60
2018-08-11T19:56:30.264Z,18.90
2018-08-11T19:58:59.380Z,19.10
2018-08-11T20:01:28.561Z,19.20
2018-08-11T20:03:57.634Z,19.20
2018-08-11T20:06:26.782Z,19.20
2018-08-11T20:08:55.918Z,18.90
2018-08-11T20:11:25.046Z,18.40
2018-08-11T20:13:54.826Z,18.60
2018-08-11T20:16:23.961Z,18.70
2018-08-11T20:18:53.188Z,18.60
2018-08-11T20:21:22.401Z,18.40
2018-08-11T20:23:51.505Z,18.40
2018-08-11T20:26:20.821Z,18.40
2018-08-11T20:28:49.888Z,18.50
2018-08-11T20:31:19.070Z,18.40
2018-08-11T20:33:48.187Z,18.30
2018-08-11T20:36:17.384Z,18.20
2018-08-11T20:38:46.588Z,18.20
2018-08-11T20:41:16.599Z,17.80
2018-08-11T20:43:45.878Z,17.30
2018-08-11T20:46:15.143Z,17.10
2018-08-11T20:48:44.361Z,17.40
2018-08-11T20:51:13.505Z,17.70
2018-08-11T20:53:42.681Z,17.90
2018-08-11T20:56:11.844Z,17.90
2018-08-11T20:58:41.115Z,17.90
2018-08-11T21:01:10.270Z,17.80
2018-08-11T21:03:39.541Z,17.70
2018-08-11T21:06:08.721Z,17.60
2018-08-11T21:08:39.300Z,17.60
2018-08-11T21:11:11.518Z,17.50
2018-08-11T21:13:42.448Z,17.40
2018-08-11T21:16:12.153Z,17.50
2018-08-11T21:18:42.630Z,17.30
2018-08-11T21:21:11.807Z,17.40
2018-08-11T21:23:41.862Z,17.40
2018-08-11T21:26:11.020Z,17.30
2018-08-11T21:28:40.352Z,17.30
2018-08-11T21:31:09.852Z,17.10
2018-08-11T21:33:39.355Z,16.90
2018-08-11T21:36:08.654Z,16.90
2018-08-11T21:38:38.021Z,16.90
2018-08-11T21:41:07.353Z,16.70
2018-08-11T21:43:36.491Z,16.80
2018-08-11T21:46:06.941Z,16.70
2018-08-11T21:48:36.561Z,16.20
2018-08-11T21:51:06.271Z,16.40
2018-08-11T21:53:35.458Z,16.70
2018-08-11T21:56:04.592Z,16.30
2018-08-11T21:58:33.898Z,16.50
2018-08-11T22:01:06.111Z,16.70
2018-08-11T22:03:35.273Z,16.60
2018-08-11T22:06:04.380Z,16.40
2018-08-11T22:08:33.582Z,16.00
2018-08-11T22:11:02.720Z,16.30
2018-08-11T22:13:32.335Z,16.20
2018-08-11T22:16:02.410Z,15.90
2018-08-11T22:18:32.195Z,15.80
2018-08-11T22:21:01.469Z,16.10
2018-08-11T22:23:30.645Z,16.20
2018-08-11T22:25:59.784Z,16.10
2018-08-11T22:28:29.097Z,16.20
2018-08-11T22:30:58.286Z,16.20
2018-08-11T22:33:28.225Z,16.30
2018-08-11T22:35:57.393Z,16.20
2018-08-11T22:38:26.580Z,16.10
2018-08-11T22:40:55.758Z,16.10
2018-08-11T22:43:24.934Z,16.00
2018-08-11T22:45:54.094Z,16.00
2018-08-11T22:48:23.395Z,15.80
2018-08-11T22:50:55.496Z,16.10
2018-08-11T22:53:24.681Z,16.10
2018-08-11T22:55:54.541Z,16.00
2018-08-11T22:58:23.813Z,15.80
2018-08-11T23:00:52.953Z,15.90
2018-08-11T23:03:22.226Z,15.60
2018-08-11T23:05:51.500Z,15.40
2018-08-11T23:08:20.673Z,15.70
2018-08-11T23:10:49.821Z,15.60
2018-08-11T23:13:18.973Z,15.70
2018-08-11T23:15:48.116Z,15.70
2018-08-11T23:18:17.297Z,15.50
2018-08-11T23:20:46.422Z,15.60
2018-08-11T23:23:15.597Z,15.80
2018-08-11T23:25:44.772Z,15.70
2018-08-11T23:28:13.913Z,15.30
2018-08-11T23:30:43.057Z,15.10
2018-08-11T23:33:12.161Z,15.40
2018-08-11T23:35:41.293Z,15.20
2018-08-11T23:38:11.053Z,15.40
2018-08-11T23:40:40.265Z,15.30
2018-08-11T23:43:10.189Z,14.90
2018-08-11T23:45:39.303Z,15.10
2018-08-11T23:48:08.415Z,15.20
2018-08-11T23:50:37.536Z,15.40
2018-08-11T23:53:06.691Z,15.10
2018-08-11T23:55:35.833Z,15.20
2018-08-11T23:58:05.213Z,15.30
